createdAt,value
2022-09-28T00:01:21.312Z,90596.50
2022-09-28T00:03:49.936Z,90598.38
2022-09-28T00:06:19.653Z,90588.91
2022-09-28T00:08:46.730Z,90591.16
2022-09-28T00:11:15.623Z,90598.41
2022-09-28T00:13:44.083Z,90596.13
2022-09-28T00:16:14.216Z,90596.16
2022-09-28T00:18:41.651Z,90580.75
2022-09-28T00:21:18.752Z,90587.09
2022-09-28T00:24:04.471Z,90587.78
2022-09-28T00:26:33.401Z,90584.44
2022-09-28T00:29:02.223Z,90586.22
2022-09-28T00:31:34.357Z,90579.06
2022-09-28T00:34:02.460Z,90569.75
2022-09-28T00:36:31.096Z,90573.13
2022-09-28T00:38:58.973Z,90576.47
2022-09-28T00:41:27.991Z,90561.47
2022-09-28T00:44:26.470Z,90572.06
2022-09-28T00:46:55.869Z,90570.75
2022-09-28T00:49:33.505Z,90569.28
2022-09-28T00:52:01.737Z,90569.91
2022-09-28T00:54:29.081Z,90566.22
2022-09-28T00:56:56.326Z,90564.69
2022-09-28T00:59:24.900Z,90572.19
2022-09-28T01:01:51.602Z,90568.31
2022-09-28T01:04:18.322Z,90572.75
2022-09-28T01:06:46.911Z,90569.44
2022-09-28T01:09:14.805Z,90569.56
2022-09-28T01:11:42.497Z,90578.00
2022-09-28T01:14:15.665Z,90578.00
2022-09-28T01:16:45.082Z,90570.13
2022-09-28T01:19:42.750Z,90563.78
2022-09-28T01:22:39.936Z,90572.50
2022-09-28T01:25:25.200Z,90565.84
2022-09-28T01:28:00.129Z,90577.94
2022-09-28T01:30:26.961Z,90572.69
2022-09-28T01:33:11.060Z,90568.94
2022-09-28T01:35:48.301Z,90570.34
2022-09-28T01:38:41.034Z,90559.84
2022-09-28T01:41:09.468Z,90565.03
2022-09-28T01:43:40.324Z,90557.16
2022-09-28T01:46:12.485Z,90558.06
2022-09-28T01:48:51.316Z,90556.53
2022-09-28T01:51:37.017Z,90563.34
2022-09-28T01:54:17.802Z,90560.72
2022-09-28T01:57:37.147Z,90552.28
2022-09-28T02:00:13.136Z,90565.25
2022-09-28T02:02:54.018Z,90551.31
2022-09-28T02:05:26.642Z,90564.06
2022-09-28T02:08:02.680Z,90555.47
2022-09-28T02:10:41.550Z,90560.31
2022-09-28T02:13:23.130Z,90563.84
2022-09-28T02:15:54.408Z,90561.63
2022-09-28T02:18:21.094Z,90564.59
2022-09-28T02:20:56.911Z,90564.97
2022-09-28T02:23:26.646Z,90567.19
2022-09-28T02:26:01.096Z,90569.16
2022-09-28T02:28:27.925Z,90532.53
2022-09-28T02:30:55.427Z,90564.66
2022-09-28T02:33:28.305Z,90568.75
2022-09-28T02:35:55.845Z,90572.91
2022-09-28T02:38:22.489Z,90555.69
2022-09-28T02:41:09.224Z,90567.28
2022-09-28T02:44:10.277Z,90559.47
2022-09-28T02:46:56.431Z,90559.06
2022-09-28T02:49:52.295Z,90553.84
2022-09-28T02:52:24.751Z,90549.78
2022-09-28T02:55:09.632Z,90544.50
2022-09-28T02:57:45.171Z,90539.25
2022-09-28T03:00:20.786Z,90546.50
2022-09-28T03:03:06.265Z,90558.50
2022-09-28T03:05:41.872Z,90554.41
2022-09-28T03:08:24.177Z,90564.84
2022-09-28T03:10:58.901Z,90547.22
2022-09-28T03:13:27.105Z,90552.88
2022-09-28T03:16:08.301Z,90556.28
2022-09-28T03:18:35.099Z,90553.63
2022-09-28T03:21:02.997Z,90558.13
2022-09-28T03:23:29.619Z,90553.59
2022-09-28T03:25:56.365Z,90559.25
2022-09-28T03:28:23.335Z,90536.09
2022-09-28T03:30:50.615Z,90569.34
2022-09-28T03:33:17.329Z,90566.03
2022-09-28T03:35:48.100Z,90571.63
2022-09-28T03:38:15.043Z,90579.50
2022-09-28T03:40:41.704Z,90569.78
2022-09-28T03:43:08.621Z,90554.47
2022-09-28T03:45:35.395Z,90577.66
2022-09-28T03:48:02.091Z,90560.44
2022-09-28T03:50:28.949Z,90567.13
2022-09-28T03:52:55.944Z,90563.78
2022-09-28T03:55:22.657Z,90564.88
2022-09-28T03:57:56.169Z,90561.88
2022-09-28T04:00:23.189Z,90555.88
2022-09-28T04:02:49.875Z,90564.53
2022-09-28T04:05:16.499Z,90566.38
2022-09-28T04:07:43.361Z,90561.53
2022-09-28T04:10:10.122Z,90571.25
2022-09-28T04:12:36.790Z,90565.31
2022-09-28T04:15:03.646Z,90570.16
2022-09-28T04:17:30.301Z,90564.94
2022-09-28T04:19:57.871Z,90574.66
2022-09-28T04:22:24.867Z,90580.63
2022-09-28T04:24:51.563Z,90581.41
2022-09-28T04:27:50.392Z,90580.25
2022-09-28T04:30:17.582Z,90591.88
2022-09-28T04:32:47.024Z,90584.72
2022-09-28T04:35:14.512Z,90574.63
2022-09-28T04:37:41.545Z,90584.41
2022-09-28T04:40:08.764Z,90600.47
2022-09-28T04:42:36.491Z,90590.38
2022-09-28T04:45:04.845Z,90595.25
2022-09-28T04:47:31.495Z,90596.75
2022-09-28T04:49:58.209Z,90595.59
2022-09-28T04:52:26.744Z,90594.09
2022-09-28T04:54:53.387Z,90599.34
2022-09-28T04:57:20.069Z,90601.59
2022-09-28T04:59:46.777Z,90606.84
2022-09-28T05:02:15.126Z,90614.28
2022-09-28T05:04:42.241Z,90611.25
2022-09-28T05:07:09.384Z,90612.00
2022-09-28T05:09:38.429Z,90610.09
2022-09-28T05:12:05.404Z,90612.00
2022-09-28T05:14:32.041Z,90619.81
2022-09-28T05:16:59.098Z,90614.94
2022-09-28T05:19:25.773Z,90609.75
2022-09-28T05:21:52.563Z,90574.63
2022-09-28T05:24:19.383Z,90611.56
2022-09-28T05:26:46.052Z,90616.44
2022-09-28T05:29:12.937Z,90617.16
2022-09-28T05:31:39.680Z,90607.78
2022-09-28T05:34:06.504Z,90612.56
2022-09-28T05:36:33.257Z,90598.28
2022-09-28T05:39:00.138Z,90611.63
2022-09-28T05:41:26.880Z,90614.53
2022-09-28T05:43:55.103Z,90615.34
2022-09-28T05:46:23.762Z,90602.09
2022-09-28T05:48:52.626Z,90606.94
2022-09-28T05:51:19.441Z,90605.47
2022-09-28T05:53:46.280Z,90601.13
2022-09-28T05:56:13.006Z,90608.28
2022-09-28T05:58:40.149Z,90613.59
2022-09-28T06:01:06.940Z,90605.06
2022-09-28T06:03:33.628Z,90613.13
2022-09-28T06:06:02.491Z,90601.34
2022-09-28T06:08:31.758Z,90624.25
2022-09-28T06:11:02.586Z,90626.50
2022-09-28T06:13:29.463Z,90622.78
2022-09-28T06:15:56.221Z,90622.69
2022-09-28T06:18:22.883Z,90616.84
2022-09-28T06:20:49.625Z,90623.97
2022-09-28T06:23:16.355Z,90616.00
2022-09-28T06:25:43.144Z,90613.66
2022-09-28T06:28:12.146Z,90617.16
2022-09-28T06:30:39.950Z,90620.06
2022-09-28T06:33:09.974Z,90607.06
2022-09-28T06:35:36.681Z,90615.38
2022-09-28T06:38:03.509Z,90618.72
2022-09-28T06:40:31.124Z,90601.50
2022-09-28T06:43:01.963Z,90611.34
2022-09-28T06:45:30.185Z,90614.66
2022-09-28T06:48:00.791Z,90613.16
2022-09-28T06:50:32.338Z,90613.78
2022-09-28T06:52:59.965Z,90610.63
2022-09-28T06:55:27.142Z,90608.00
2022-09-28T06:58:02.312Z,90606.59
2022-09-28T07:00:32.997Z,90609.38
2022-09-28T07:03:01.796Z,90614.94
2022-09-28T07:05:29.627Z,90618.41
2022-09-28T07:07:56.890Z,90609.63
2022-09-28T07:10:25.567Z,90606.19
2022-09-28T07:12:52.530Z,90601.56
2022-09-28T07:15:19.779Z,90605.97
2022-09-28T07:17:58.971Z,90592.69
2022-09-28T07:20:28.973Z,90597.91
2022-09-28T07:22:59.236Z,90603.75
2022-09-28T07:25:31.626Z,90604.56
2022-09-28T07:27:59.801Z,90610.91
2022-09-28T07:30:28.239Z,90610.81
2022-09-28T07:32:55.716Z,90601.81
2022-09-28T07:35:22.782Z,90603.16
2022-09-28T07:37:49.478Z,90603.94
2022-09-28T07:40:34.988Z,90593.13
2022-09-28T07:43:06.471Z,90599.97
2022-09-28T07:45:36.825Z,90600.75
2022-09-28T07:48:03.693Z,90598.25
2022-09-28T07:50:31.513Z,90608.91
2022-09-28T07:52:58.743Z,90602.00
2022-09-28T07:55:28.189Z,90571.63
2022-09-28T07:58:01.812Z,90600.06
2022-09-28T08:00:33.972Z,90601.19
2022-09-28T08:03:04.091Z,90601.78
2022-09-28T08:05:32.122Z,90602.53
2022-09-28T08:07:59.770Z,90596.41
2022-09-28T08:10:26.721Z,90592.75
2022-09-28T08:13:00.694Z,90593.47
2022-09-28T08:15:37.029Z,90592.00
2022-09-28T08:18:07.323Z,90598.13
2022-09-28T08:20:52.727Z,90589.69
2022-09-28T08:23:20.431Z,90602.00
2022-09-28T08:25:51.429Z,90604.88
2022-09-28T08:28:18.488Z,90604.81
2022-09-28T08:30:46.269Z,90613.78
2022-09-28T08:33:13.956Z,90613.38
2022-09-28T08:35:43.937Z,90610.00
2022-09-28T08:38:10.973Z,90602.94
2022-09-28T08:40:57.887Z,90604.06
2022-09-28T08:43:45.282Z,90602.06
2022-09-28T08:46:15.146Z,90594.44
2022-09-28T08:49:25.669Z,90602.88
2022-09-28T08:51:55.668Z,90593.81
2022-09-28T08:54:45.993Z,90601.34
2022-09-28T08:57:19.091Z,90590.44
2022-09-28T08:59:49.878Z,90593.44
2022-09-28T09:02:25.553Z,90593.31
2022-09-28T09:04:52.846Z,90617.59
2022-09-28T09:07:26.049Z,90612.75
2022-09-28T09:10:04.752Z,90594.75
2022-09-28T09:13:00.833Z,90603.16
2022-09-28T09:16:22.015Z,90595.22
2022-09-28T09:19:12.794Z,90596.63
2022-09-28T09:21:52.702Z,90619.09
2022-09-28T09:24:27.441Z,90625.84
2022-09-28T09:27:12.926Z,90606.81
2022-09-28T09:30:06.512Z,90614.53
2022-09-28T09:33:08.489Z,90612.22
2022-09-28T09:35:50.245Z,90604.81
2022-09-28T09:38:40.780Z,90604.81
2022-09-28T09:41:36.450Z,90616.72
2022-09-28T09:44:15.230Z,90622.56
2022-09-28T09:46:50.097Z,90609.50
2022-09-28T09:49:21.296Z,90616.13
2022-09-28T09:51:51.775Z,90629.34
2022-09-28T09:54:34.093Z,90623.56
2022-09-28T09:57:13.362Z,90621.38
2022-09-28T09:59:42.146Z,90604.56
2022-09-28T10:02:32.960Z,90611.50
2022-09-28T10:05:16.125Z,90600.22
2022-09-28T10:07:51.277Z,90602.22
2022-09-28T10:10:26.734Z,90607.81
2022-09-28T10:12:54.241Z,90603.03
2022-09-28T10:15:25.680Z,90590.38
2022-09-28T10:17:54.676Z,90594.38
2022-09-28T10:20:23.101Z,90609.53
2022-09-28T10:22:56.270Z,90604.47
2022-09-28T10:25:23.946Z,90598.44
2022-09-28T10:27:52.586Z,90609.56
2022-09-28T10:30:25.176Z,90603.97
2022-09-28T10:32:55.539Z,90603.84
2022-09-28T10:35:29.262Z,90598.56
2022-09-28T10:37:59.297Z,90611.69
2022-09-28T10:40:43.572Z,90609.63
2022-09-28T10:43:24.970Z,90601.59
2022-09-28T10:46:05.578Z,90604.59
2022-09-28T10:48:39.340Z,90609.53
2022-09-28T10:51:08.195Z,90601.47
2022-09-28T10:53:37.210Z,90608.22
2022-09-28T10:56:05.342Z,90610.09
2022-09-28T10:58:43.096Z,90605.19
2022-09-28T11:01:22.299Z,90598.31
2022-09-28T11:04:01.709Z,90580.06
2022-09-28T11:06:31.732Z,90587.19
2022-09-28T11:09:02.704Z,90589.41
2022-09-28T11:11:29.770Z,90601.97
2022-09-28T11:14:03.630Z,90601.25
2022-09-28T11:16:32.873Z,90600.25
2022-09-28T11:19:25.501Z,90607.63
2022-09-28T11:21:52.419Z,90599.84
2022-09-28T11:24:25.656Z,90596.13
2022-09-28T11:27:00.178Z,90605.16
2022-09-28T11:29:42.180Z,90580.78
2022-09-28T11:32:15.493Z,90586.69
2022-09-28T11:34:59.241Z,90581.44
2022-09-28T11:37:57.045Z,90579.22
2022-09-28T11:40:33.269Z,90583.66
2022-09-28T11:43:24.756Z,90581.00
2022-09-28T11:45:57.542Z,90578.53
2022-09-28T11:48:29.031Z,90571.81
2022-09-28T11:51:04.338Z,90572.50
2022-09-28T11:53:38.908Z,90575.03
2022-09-28T11:56:12.094Z,90563.56
2022-09-28T11:58:48.231Z,90580.31
2022-09-28T12:01:35.825Z,90567.25
2022-09-28T12:04:18.637Z,90571.28
2022-09-28T12:06:58.425Z,90556.16
2022-09-28T12:09:39.610Z,90563.47
2022-09-28T12:12:18.590Z,90576.47
2022-09-28T12:14:47.025Z,90565.41
2022-09-28T12:17:30.874Z,90568.13
2022-09-28T12:20:09.934Z,90571.38
2022-09-28T12:22:46.045Z,90554.31
2022-09-28T12:25:21.245Z,90558.91
2022-09-28T12:28:00.637Z,90561.88
2022-09-28T12:30:34.499Z,90566.97
2022-09-28T12:33:07.006Z,90570.97
2022-09-28T12:36:07.446Z,90560.50
2022-09-28T12:39:08.357Z,90569.34
2022-09-28T12:41:53.623Z,90560.94
2022-09-28T12:44:37.699Z,90570.63
2022-09-28T12:47:29.336Z,90560.59
2022-09-28T12:53:03.888Z,90566.75
2022-09-28T12:55:43.806Z,90575.81
2022-09-28T12:58:25.599Z,90559.59
2022-09-28T13:01:38.909Z,90572.69
2022-09-28T13:04:23.722Z,90564.38
2022-09-28T13:07:01.388Z,90568.44
2022-09-28T13:09:37.289Z,90579.16
2022-09-28T13:12:39.106Z,90567.03
2022-09-28T13:15:24.858Z,90582.81
2022-09-28T13:18:01.887Z,90576.00
2022-09-28T13:21:04.350Z,90578.72
2022-09-28T13:23:37.997Z,90575.50
2022-09-28T13:26:05.078Z,90590.09
2022-09-28T13:28:33.994Z,90571.47
2022-09-28T13:31:02.350Z,90566.91
2022-09-28T13:33:41.115Z,90573.44
2022-09-28T13:36:26.289Z,90570.28
2022-09-28T13:38:54.181Z,90587.66
2022-09-28T13:41:56.113Z,90588.13
2022-09-28T13:44:41.712Z,90575.22
2022-09-28T13:47:38.661Z,90572.16
2022-09-28T13:50:29.505Z,90582.38
2022-09-28T13:53:02.832Z,90573.91
2022-09-28T13:55:35.427Z,90581.06
2022-09-28T13:58:26.931Z,90575.16
2022-09-28T14:01:21.308Z,90580.72
2022-09-28T14:04:21.994Z,90580.16
2022-09-28T14:06:55.491Z,90574.25
2022-09-28T14:09:25.799Z,90582.25
2022-09-28T14:12:01.218Z,90582.09
2022-09-28T14:14:29.492Z,90571.47
2022-09-28T14:17:19.433Z,90588.13
2022-09-28T14:19:53.197Z,90584.88
2022-09-28T14:22:19.830Z,90579.03
2022-09-28T14:25:15.275Z,90583.91
2022-09-28T14:28:03.351Z,90577.19
2022-09-28T14:30:42.137Z,90584.38
2022-09-28T14:33:21.034Z,90589.25
2022-09-28T14:36:05.201Z,90588.41
2022-09-28T14:39:05.536Z,90582.44
2022-09-28T14:41:35.199Z,90591.78
2022-09-28T14:44:03.868Z,90588.53
2022-09-28T14:46:35.745Z,90584.25
2022-09-28T14:49:03.485Z,90581.97
2022-09-28T14:51:30.480Z,90578.13
2022-09-28T14:54:03.025Z,90585.72
2022-09-28T14:56:33.514Z,90587.16
2022-09-28T14:59:00.795Z,90594.28
2022-09-28T15:01:27.969Z,90592.81
2022-09-28T15:03:59.263Z,90603.47
2022-09-28T15:06:29.033Z,90602.16
2022-09-28T15:08:55.775Z,90616.81
2022-09-28T15:11:25.651Z,90612.53
2022-09-28T15:14:06.346Z,90608.06
2022-09-28T15:16:33.545Z,90614.41
2022-09-28T15:19:29.197Z,90619.00
2022-09-28T15:21:55.923Z,90631.09
2022-09-28T15:24:28.662Z,90625.06
2022-09-28T15:26:56.834Z,90628.88
2022-09-28T15:29:25.918Z,90630.19
2022-09-28T15:31:54.668Z,90639.94
2022-09-28T15:34:54.867Z,90648.03
2022-09-28T15:37:28.802Z,90646.06
2022-09-28T15:39:58.150Z,90644.91
2022-09-28T15:42:25.897Z,90647.38
2022-09-28T15:45:07.811Z,90650.25
2022-09-28T15:47:35.489Z,90646.59
2022-09-28T15:50:19.825Z,90656.78
2022-09-28T15:52:55.299Z,90648.97
2022-09-28T15:55:44.024Z,90651.91
2022-09-28T15:58:21.000Z,90646.56
2022-09-28T16:00:49.769Z,90653.09
2022-09-28T16:03:28.605Z,90641.91
2022-09-28T16:05:58.316Z,90645.38
2022-09-28T16:08:33.071Z,90644.06
2022-09-28T16:11:31.859Z,90642.94
2022-09-28T16:14:06.840Z,90641.31
2022-09-28T16:16:41.130Z,90647.38
2022-09-28T16:19:24.169Z,90642.47
2022-09-28T16:21:56.207Z,90652.06
2022-09-28T16:24:31.592Z,90653.66
2022-09-28T16:27:04.558Z,90642.53
2022-09-28T16:29:41.335Z,90649.66
2022-09-28T16:32:26.077Z,90634.53
2022-09-28T16:35:13.456Z,90641.16
2022-09-28T16:37:43.934Z,90636.91
2022-09-28T16:40:12.148Z,90641.00
2022-09-28T16:42:45.477Z,90646.97
2022-09-28T16:45:21.545Z,90660.06
2022-09-28T16:47:51.969Z,90650.00
2022-09-28T16:50:20.983Z,90658.94
2022-09-28T16:53:09.223Z,90663.22
2022-09-28T16:55:41.448Z,90675.91
2022-09-28T16:58:08.609Z,90674.09
2022-09-28T17:00:35.528Z,90679.75
2022-09-28T17:03:04.260Z,90681.25
2022-09-28T17:05:30.943Z,90678.09
2022-09-28T17:08:03.280Z,90667.84
2022-09-28T17:10:56.084Z,90675.34
2022-09-28T17:13:31.570Z,90684.25
2022-09-28T17:16:09.003Z,90676.72
2022-09-28T17:18:39.140Z,90683.00
2022-09-28T17:21:18.521Z,90682.97
2022-09-28T17:23:47.444Z,90686.13
2022-09-28T17:26:34.558Z,90693.47
2022-09-28T17:29:06.808Z,90709.28
2022-09-28T17:31:33.431Z,90715.16
2022-09-28T17:34:00.106Z,90709.22
2022-09-28T17:36:27.041Z,90702.91
2022-09-28T17:38:53.657Z,90710.84
2022-09-28T17:41:21.230Z,90710.31
2022-09-28T17:43:48.812Z,90716.66
2022-09-28T17:46:19.147Z,90718.59
2022-09-28T17:48:47.499Z,90712.16
2022-09-28T17:51:15.051Z,90716.94
2022-09-28T17:53:41.767Z,90729.69
2022-09-28T17:56:09.793Z,90735.53
2022-09-28T17:58:36.740Z,90733.53
2022-09-28T18:01:03.471Z,90746.03
2022-09-28T18:03:30.205Z,90739.16
2022-09-28T18:06:06.605Z,90730.75
2022-09-28T18:08:34.075Z,90735.84
2022-09-28T18:11:03.934Z,90746.13
2022-09-28T18:13:30.667Z,90739.00
2022-09-28T18:15:57.487Z,90742.38
2022-09-28T18:18:25.198Z,90756.28
2022-09-28T18:20:52.400Z,90747.31
2022-09-28T18:23:19.156Z,90750.47
2022-09-28T18:25:46.758Z,90747.78
2022-09-28T18:28:14.087Z,90750.34
2022-09-28T18:30:45.399Z,90748.06
2022-09-28T18:33:13.988Z,90743.25
2022-09-28T18:35:41.427Z,90755.72
2022-09-28T18:38:08.269Z,90764.59
2022-09-28T18:40:36.011Z,90766.03
2022-09-28T18:43:03.699Z,90778.03
2022-09-28T18:45:30.481Z,90784.47
2022-09-28T18:47:58.015Z,90782.03
2022-09-28T18:50:24.657Z,90770.59
2022-09-28T18:52:51.373Z,90756.72
2022-09-28T18:55:18.266Z,90769.88
2022-09-28T18:57:46.416Z,90779.38
2022-09-28T19:00:14.781Z,90792.19
2022-09-28T19:02:41.546Z,90788.88
2022-09-28T19:05:08.403Z,90797.25
2022-09-28T19:07:35.224Z,90798.16
2022-09-28T19:10:01.946Z,90795.16
2022-09-28T19:12:28.572Z,90799.22
2022-09-28T19:14:55.265Z,90788.28
2022-09-28T19:17:21.921Z,90795.94
2022-09-28T19:19:48.583Z,90788.75
2022-09-28T19:22:15.315Z,90798.34
2022-09-28T19:24:42.059Z,90798.47
2022-09-28T19:27:08.734Z,90793.88
2022-09-28T19:29:35.348Z,90799.97
2022-09-28T19:32:02.351Z,90797.94
2022-09-28T19:34:30.206Z,90797.22
2022-09-28T19:36:57.479Z,90802.09
2022-09-28T19:39:24.147Z,90793.97
2022-09-28T19:41:51.535Z,90785.72
2022-09-28T19:44:29.846Z,90801.31
2022-09-28T19:47:08.096Z,90794.06
2022-09-28T19:49:37.168Z,90771.63
2022-09-28T19:52:15.877Z,90798.56
2022-09-28T19:54:56.643Z,90802.25
2022-09-28T19:57:32.722Z,90801.16
2022-09-28T20:00:03.098Z,90808.03
2022-09-28T20:02:30.941Z,90801.66
2022-09-28T20:04:57.672Z,90798.91
2022-09-28T20:07:24.449Z,90793.22
2022-09-28T20:09:51.760Z,90791.22
2022-09-28T20:12:18.429Z,90787.56
2022-09-28T20:14:45.106Z,90790.03
2022-09-28T20:17:11.990Z,90798.34
2022-09-28T20:19:39.179Z,90788.84
2022-09-28T20:22:05.986Z,90796.25
2022-09-28T20:24:33.001Z,90808.66
2022-09-28T20:27:01.456Z,90796.38
2022-09-28T20:29:28.711Z,90794.94
2022-09-28T20:31:55.331Z,90802.09
2022-09-28T20:34:22.022Z,90778.69
2022-09-28T20:36:48.702Z,90791.63
2022-09-28T20:39:15.610Z,90787.16
2022-09-28T20:41:42.443Z,90790.72
2022-09-28T20:44:10.005Z,90784.53
2022-09-28T20:46:37.457Z,90789.41
2022-09-28T20:49:05.267Z,90802.13
2022-09-28T20:51:32.201Z,90794.78
2022-09-28T20:53:59.807Z,90798.75
2022-09-28T20:56:27.645Z,90796.75
2022-09-28T20:58:55.126Z,90799.38
2022-09-28T21:01:27.438Z,90790.22
2022-09-28T21:03:59.127Z,90802.81
2022-09-28T21:06:37.869Z,90803.19
2022-09-28T21:09:06.377Z,90803.81
2022-09-28T21:11:35.618Z,90807.50
2022-09-28T21:14:06.456Z,90808.94
2022-09-28T21:16:34.893Z,90809.72
2022-09-28T21:19:03.978Z,90798.81
2022-09-28T21:21:30.964Z,90801.44
2022-09-28T21:23:58.749Z,90806.69
2022-09-28T21:26:29.711Z,90789.88
2022-09-28T21:29:07.709Z,90800.47
2022-09-28T21:31:40.221Z,90802.72
2022-09-28T21:34:13.359Z,90805.06
2022-09-28T21:36:43.245Z,90802.41
2022-09-28T21:39:10.599Z,90806.81
2022-09-28T21:41:37.826Z,90809.28
2022-09-28T21:44:05.147Z,90797.19
2022-09-28T21:46:34.430Z,90791.94
2022-09-28T21:49:02.839Z,90796.41
2022-09-28T21:51:30.059Z,90798.75
2022-09-28T21:53:57.480Z,90800.84
2022-09-28T21:56:24.279Z,90808.16
2022-09-28T21:58:51.200Z,90792.75
2022-09-28T22:01:22.027Z,90801.72
2022-09-28T22:03:51.140Z,90796.28
2022-09-28T22:06:23.116Z,90799.94
2022-09-28T22:08:50.444Z,90785.88
2022-09-28T22:11:22.659Z,90804.84
2022-09-28T22:13:52.258Z,90808.84
2022-09-28T22:16:23.047Z,90805.81
2022-09-28T22:18:50.401Z,90804.69
2022-09-28T22:21:37.363Z,90805.44
2022-09-28T22:24:07.096Z,90802.75
2022-09-28T22:26:36.843Z,90802.78
2022-09-28T22:29:06.484Z,90799.34
2022-09-28T22:31:35.746Z,90792.97
2022-09-28T22:34:03.136Z,90802.22
2022-09-28T22:36:30.630Z,90800.97
2022-09-28T22:38:58.483Z,90790.06
2022-09-28T22:41:25.301Z,90804.66
2022-09-28T22:43:53.571Z,90797.53
2022-09-28T22:46:22.964Z,90813.75
2022-09-28T22:48:52.821Z,90806.16
2022-09-28T22:51:20.539Z,90806.56
2022-09-28T22:53:47.441Z,90811.41
2022-09-28T22:56:18.698Z,90810.72
2022-09-28T22:58:46.631Z,90817.19
2022-09-28T23:01:22.570Z,90808.09
2022-09-28T23:03:50.875Z,90809.31
2022-09-28T23:06:19.730Z,90808.59
2022-09-28T23:08:47.483Z,90810.44
2022-09-28T23:11:15.259Z,90810.81
2022-09-28T23:13:42.021Z,90815.69
2022-09-28T23:16:11.611Z,90805.88
2022-09-28T23:18:42.917Z,90816.00
2022-09-28T23:21:15.472Z,90825.84
2022-09-28T23:23:43.608Z,90817.56
2022-09-28T23:26:13.169Z,90805.53
2022-09-28T23:28:40.211Z,90820.59
2022-09-28T23:31:16.546Z,90822.81
2022-09-28T23:33:43.818Z,90811.97
2022-09-28T23:36:10.953Z,90813.13
2022-09-28T23:38:38.050Z,90798.09
2022-09-28T23:41:05.549Z,90806.50
2022-09-28T23:43:32.753Z,90801.19
2022-09-28T23:45:59.606Z,90807.56
2022-09-28T23:48:26.498Z,90801.22
2022-09-28T23:50:53.167Z,90795.94
2022-09-28T23:53:19.950Z,90802.69
2022-09-28T23:55:46.785Z,90806.00
2022-09-28T23:58:13.631Z,90797.38
